Time,TemperatureF,DewpointF,PressureIn,WindDirection,WindDirectionDegrees,WindSpeedMPH,WindSpeedGustMPH,Humidity,HourlyPrecipIn,Conditions,Clouds,dailyrainin,SoftwareType,DateUTC
2013-02-25 00:00:00,41.9,37.7,30.26,ENE,76,0.0,0.0,85,0.00,CLR,,0.00,WeatherDisplay:10.37,2013-02-25 08:00:00,
2013-02-25 00:05:00,42.0,37.5,30.26,ENE,77,0.0,0.0,84,0.00,CLR,,0.00,WeatherDisplay:10.37,2013-02-25 08:05:00,
2013-02-25 00:10:00,42.0,37.5,30.26,ENE,77,0.0,0.0,84,0.00,CLR,,0.00,WeatherDisplay:10.37,2013-02-25 08:10:00,
2013-02-25 00:15:00,42.0,37.5,30.26,ENE,77,0.0,0.0,84,0.00,CLR,,0.00,WeatherDisplay:10.37,2013-02-25 08:15:00,
2013-02-25 00:20:00,41.9,37.4,30.26,ENE,76,0.0,0.0,84,0.00,CLR,,0.00,WeatherDisplay:10.37,2013-02-25 08:20:00,
2013-02-25 00:25:00,41.6,36.8,30.26,ENE,76,0.0,0.0,83,0.00,CLR,,0.00,WeatherDisplay:10.37,2013-02-25 08:25:00,
2013-02-25 00:30:00,41.2,36.7,30.26,ENE,76,0.0,0.0,84,0.00,CLR,,0.00,WeatherDisplay:10.37,2013-02-25 08:30:00,
2013-02-25 00:35:00,41.0,36.8,30.26,ENE,77,0.0,0.0,85,0.00,CLR,,0.00,WeatherDisplay:10.37,2013-02-25 08:35:00,
2013-02-25 00:40:00,41.0,36.8,30.26,ENE,77,0.0,0.0,85,0.00,CLR,,0.00,WeatherDisplay:10.37,2013-02-25 08:40:00,
2013-02-25 00:45:00,41.0,36.8,30.26,ENE,76,0.0,0.0,85,0.00,CLR,,0.00,WeatherDisplay:10.37,2013-02-25 08:45:00,
2013-02-25 00:50:00,41.0,36.8,30.27,ENE,77,0.0,0.0,85,0.00,CLR,,0.00,WeatherDisplay:10.37,2013-02-25 08:50:00,
2013-02-25 00:55:00,40.8,36.6,30.27,ENE,77,0.0,0.0,85,0.00,CLR,,0.00,WeatherDisplay:10.37,2013-02-25 08:55:00,
2013-02-25 01:00:00,40.5,36.0,30.27,ENE,77,0.0,0.0,84,0.00,CLR,,0.00,WeatherDisplay:10.37,2013-02-25 09:00:00,
2013-02-25 01:05:00,40.1,36.0,30.27,ENE,77,0.0,0.0,85,0.00,CLR,,0.00,WeatherDisplay:10.37,2013-02-25 09:05:00,
2013-02-25 01:10:00,39.9,36.1,30.27,ENE,77,0.0,0.0,86,0.00,CLR,,0.00,WeatherDisplay:10.37,2013-02-25 09:10:00,
2013-02-25 01:15:00,39.7,35.9,30.27,ENE,77,0.0,0.0,86,0.00,CLR,,0.00,WeatherDisplay:10.37,2013-02-25 09:15:00,
2013-02-25 01:20:00,40.0,36.4,30.27,South,169,0.0,0.0,87,0.00,CLR,,0.00,WeatherDisplay:10.37,2013-02-25 09:20:00,
2013-02-25 01:25:00,40.4,36.5,30.28,SW,225,1.2,1.2,86,0.00,CLR,,0.00,WeatherDisplay:10.37,2013-02-25 09:25:00,
2013-02-25 01:30:00,40.4,36.5,30.28,SW,232,1.2,1.2,86,0.00,CLR,,0.00,WeatherDisplay:10.37,2013-02-25 09:30:00,
2013-02-25 01:35:00,40.2,36.1,30.28,SW,219,0.0,0.0,85,0.00,CLR,,0.00,WeatherDisplay:10.37,2013-02-25 09:35:00,
2013-02-25 01:40:00,40.0,35.9,30.28,SW,219,0.0,0.0,85,0.00,CLR,,0.00,WeatherDisplay:10.37,2013-02-25 09:40:00,
2013-02-25 01:45:00,39.6,35.8,30.28,SW,218,0.0,0.0,86,0.00,CLR,,0.00,WeatherDisplay:10.37,2013-02-25 09:45:00,
2013-02-25 01:50:00,39.4,35.6,30.28,SW,218,0.0,0.0,86,0.00,CLR,,0.00,WeatherDisplay:10.37,2013-02-25 09:50:00,
2013-02-25 01:55:00,39.1,35.3,30.28,SW,218,0.0,0.0,86,0.00,CLR,,0.00,WeatherDisplay:10.37,2013-02-25 09:55:00,
2013-02-25 02:00:00,38.9,35.4,30.28,SW,218,0.0,0.0,87,0.00,CLR,,0.00,WeatherDisplay:10.37,2013-02-25 10:00:00,
2013-02-25 02:05:00,38.6,35.1,30.28,SW,218,0.0,0.0,87,0.00,CLR,,0.00,WeatherDisplay:10.37,2013-02-25 10:05:00,
2013-02-25 02:10:00,38.4,35.2,30.28,SW,218,0.0,0.0,88,0.00,CLR,,0.00,WeatherDisplay:10.37,2013-02-25 10:10:00,
2013-02-25 02:15:00,38.3,35.1,30.28,SW,218,0.0,0.0,88,0.00,CLR,,0.00,WeatherDisplay:10.37,2013-02-25 10:15:00,
2013-02-25 02:20:00,38.1,34.9,30.28,SW,218,0.0,0.0,88,0.00,CLR,,0.00,WeatherDisplay:10.37,2013-02-25 10:20:00,
2013-02-25 02:25:00,37.9,34.7,30.28,SW,218,0.0,0.0,88,0.00,CLR,,0.00,WeatherDisplay:10.37,2013-02-25 10:25:00,
2013-02-25 02:30:00,37.6,34.4,30.28,SW,218,0.0,0.0,88,0.00,CLR,,0.00,WeatherDisplay:10.37,2013-02-25 10:30:00,
2013-02-25 02:35:00,37.3,34.4,30.28,SW,218,0.0,0.0,89,0.00,CLR,,0.00,WeatherDisplay:10.37,2013-02-25 10:35:00,
2013-02-25 02:40:00,37.2,34.5,30.27,SW,218,0.0,0.0,90,0.00,CLR,,0.00,WeatherDisplay:10.37,2013-02-25 10:40:00,
2013-02-25 02:45:00,37.3,34.6,30.27,SW,218,0.0,0.0,90,0.00,CLR,,0.00,WeatherDisplay:10.37,2013-02-25 10:45:00,
2013-02-25 02:50:00,37.3,34.9,30.26,SW,219,0.0,0.0,91,0.00,CLR,,0.00,WeatherDisplay:10.37,2013-02-25 10:50:00,
2013-02-25 02:55:00,37.3,34.6,30.26,SW,218,0.0,0.0,90,0.00,CLR,,0.00,WeatherDisplay:10.37,2013-02-25 10:55:00,
2013-02-25 03:00:00,37.0,34.1,30.26,SW,218,0.0,0.0,89,0.00,CLR,,0.00,WeatherDisplay:10.37,2013-02-25 11:00:00,
2013-02-25 03:05:00,36.9,34.2,30.26,SW,219,0.0,0.0,90,0.00,CLR,,0.00,WeatherDisplay:10.37,2013-02-25 11:05:00,
2013-02-25 03:10:00,36.8,34.1,30.25,SW,219,0.0,0.0,90,0.00,CLR,,0.00,WeatherDisplay:10.37,2013-02-25 11:10:00,
2013-02-25 03:15:00,36.5,33.8,30.25,SW,218,0.0,0.0,90,0.00,CLR,,0.00,WeatherDisplay:10.37,2013-02-25 11:15:00,
2013-02-25 03:20:00,36.2,33.3,30.25,SW,218,0.0,0.0,89,0.00,CLR,,0.00,WeatherDisplay:10.37,2013-02-25 11:20:00,
2013-02-25 03:25:00,36.0,33.4,30.25,SW,218,0.0,0.0,90,0.00,CLR,,0.00,WeatherDisplay:10.37,2013-02-25 11:25:00,
2013-02-25 03:30:00,35.9,33.3,30.25,SW,218,0.0,0.0,90,0.00,CLR,,0.00,WeatherDisplay:10.37,2013-02-25 11:30:00,
2013-02-25 03:35:00,35.8,33.4,30.25,SW,219,0.0,0.0,91,0.00,CLR,,0.00,WeatherDisplay:10.37,2013-02-25 11:35:00,
2013-02-25 03:40:00,35.6,33.2,30.25,SW,218,0.0,0.0,91,0.00,CLR,,0.00,WeatherDisplay:10.37,2013-02-25 11:40:00,
2013-02-25 03:45:00,35.6,33.2,30.25,SW,219,0.0,0.0,91,0.00,CLR,,0.00,WeatherDisplay:10.37,2013-02-25 11:45:00,
2013-02-25 03:50:00,35.5,33.1,30.25,SW,218,0.0,0.0,91,0.00,CLR,,0.00,WeatherDisplay:10.37,2013-02-25 11:50:00,
2013-02-25 03:55:00,35.3,32.9,30.25,SW,218,0.0,0.0,91,0.00,CLR,,0.00,WeatherDisplay:10.37,2013-02-25 11:55:00,
2013-02-25 04:00:00,35.2,32.8,30.25,SW,218,0.0,0.0,91,0.00,CLR,,0.00,WeatherDisplay:10.37,2013-02-25 12:00:00,
2013-02-25 04:05:00,35.0,32.9,30.25,SW,219,0.0,0.0,92,0.00,CLR,,0.00,WeatherDisplay:10.37,2013-02-25 12:05:00,
2013-02-25 04:10:00,35.1,33.0,30.25,SW,218,0.0,0.0,92,0.00,CLR,,0.00,WeatherDisplay:10.37,2013-02-25 12:10:00,
2013-02-25 04:15:00,34.9,32.8,30.25,SW,218,0.0,0.0,92,0.00,CLR,,0.00,WeatherDisplay:10.37,2013-02-25 12:15:00,
2013-02-25 04:20:00,34.7,32.3,30.25,SW,218,0.0,0.0,91,0.00,CLR,,0.00,WeatherDisplay:10.37,2013-02-25 12:20:00,
2013-02-25 04:25:00,34.5,32.4,30.25,SW,218,0.0,0.0,92,0.00,CLR,,0.00,WeatherDisplay:10.37,2013-02-25 12:25:00,
2013-02-25 04:30:00,34.4,32.3,30.26,SW,218,0.0,0.0,92,0.00,CLR,,0.00,WeatherDisplay:10.37,2013-02-25 12:30:00,
2013-02-25 04:35:00,34.3,32.2,30.26,SW,218,0.0,0.0,92,0.00,CLR,,0.00,WeatherDisplay:10.37,2013-02-25 12:35:00,
2013-02-25 04:40:00,34.1,32.0,30.27,SW,219,0.0,0.0,92,0.00,CLR,,0.00,WeatherDisplay:10.37,2013-02-25 12:40:00,
2013-02-25 04:45:00,34.0,31.9,30.27,SW,218,0.0,0.0,92,0.00,CLR,,0.00,WeatherDisplay:10.37,2013-02-25 12:45:00,
2013-02-25 04:50:00,33.9,31.8,30.27,SW,218,0.0,0.0,92,0.00,CLR,,0.00,WeatherDisplay:10.37,2013-02-25 12:50:00,
2013-02-25 04:55:00,33.7,31.6,30.27,SW,218,0.0,0.0,92,0.00,CLR,,0.00,WeatherDisplay:10.37,2013-02-25 12:55:00,
2013-02-25 05:01:00,33.7,31.6,30.27,SW,218,0.0,0.0,92,0.00,CLR,,0.00,WeatherDisplay:10.37,2013-02-25 13:01:00,
2013-02-25 05:06:00,33.8,32.0,30.27,SW,218,0.0,0.0,93,0.00,CLR,,0.00,WeatherDisplay:10.37,2013-02-25 13:06:00,
2013-02-25 05:11:00,34.1,32.3,30.27,SW,218,0.0,0.0,93,0.00,CLR,,0.00,WeatherDisplay:10.37,2013-02-25 13:11:00,
2013-02-25 05:16:00,34.3,32.8,30.27,SW,218,0.0,0.0,94,0.00,CLR,,0.00,WeatherDisplay:10.37,2013-02-25 13:16:00,
2013-02-25 05:21:00,34.4,32.9,30.27,SW,218,0.0,0.0,94,0.00,CLR,,0.00,WeatherDisplay:10.37,2013-02-25 13:21:00,
2013-02-25 05:26:00,34.7,33.2,30.27,SW,218,0.0,0.0,94,0.00,CLR,,0.00,WeatherDisplay:10.37,2013-02-25 13:26:00,
2013-02-25 05:31:00,35.1,33.5,30.27,SW,218,0.0,0.0,94,0.00,CLR,,0.00,WeatherDisplay:10.37,2013-02-25 13:31:00,
2013-02-25 05:36:00,35.2,33.6,30.27,SW,218,0.0,0.0,94,0.00,CLR,,0.00,WeatherDisplay:10.37,2013-02-25 13:36:00,
2013-02-25 05:41:00,35.2,33.6,30.27,SW,218,0.0,0.0,94,0.00,CLR,,0.00,WeatherDisplay:10.37,2013-02-25 13:41:00,
2013-02-25 05:46:00,35.1,33.3,30.27,SW,218,0.0,0.0,93,0.00,CLR,,0.00,WeatherDisplay:10.37,2013-02-25 13:46:00,
2013-02-25 05:51:00,35.0,33.2,30.27,SW,218,0.0,0.0,93,0.00,CLR,,0.00,WeatherDisplay:10.37,2013-02-25 13:51:00,
2013-02-25 05:56:00,34.8,33.0,30.27,SW,218,0.0,0.0,93,0.00,CLR,,0.00,WeatherDisplay:10.37,2013-02-25 13:56:00,
2013-02-25 06:01:00,34.6,32.8,30.27,SW,218,0.0,0.0,93,0.00,CLR,,0.00,WeatherDisplay:10.37,2013-02-25 14:01:00,
2013-02-25 06:07:00,34.4,32.6,30.27,SW,218,0.0,0.0,93,0.00,CLR,,0.00,WeatherDisplay:10.37,2013-02-25 14:07:00,
2013-02-25 06:12:00,34.6,33.1,30.27,SW,218,0.0,0.0,94,0.00,CLR,,0.00,WeatherDisplay:10.37,2013-02-25 14:12:00,
2013-02-25 06:17:00,34.9,33.3,30.26,SW,218,0.0,0.0,94,0.00,CLR,,0.00,WeatherDisplay:10.37,2013-02-25 14:17:00,
2013-02-25 06:22:00,34.9,33.1,30.27,SW,218,0.0,0.0,93,0.00,CLR,,0.00,WeatherDisplay:10.37,2013-02-25 14:22:00,
2013-02-25 06:27:00,34.8,33.0,30.27,SW,219,0.0,0.0,93,0.00,CLR,,0.00,WeatherDisplay:10.37,2013-02-25 14:27:00,
2013-02-25 06:32:00,34.7,32.9,30.27,SW,218,0.0,0.0,93,0.00,CLR,,0.00,WeatherDisplay:10.37,2013-02-25 14:32:00,
2013-02-25 06:37:00,34.6,32.8,30.27,SW,218,0.0,0.0,93,0.00,CLR,,0.00,WeatherDisplay:10.37,2013-02-25 14:37:00,
2013-02-25 06:42:00,34.4,32.6,30.27,SW,219,0.0,0.0,93,0.00,CLR,,0.00,WeatherDisplay:10.37,2013-02-25 14:42:00,
2013-02-25 06:47:00,34.2,32.4,30.27,SW,219,0.0,0.0,93,0.00,CLR,,0.00,WeatherDisplay:10.37,2013-02-25 14:47:00,
2013-02-25 06:52:00,34.0,32.2,30.27,SW,219,0.0,0.0,93,0.00,CLR,,0.00,WeatherDisplay:10.37,2013-02-25 14:52:00,
2013-02-25 06:57:00,34.0,32.2,30.27,SW,218,0.0,0.0,93,0.00,CLR,,0.00,WeatherDisplay:10.37,2013-02-25 14:57:00,
2013-02-25 07:02:00,34.0,32.5,30.27,SW,218,0.0,0.0,94,0.00,CLR,,0.00,WeatherDisplay:10.37,2013-02-25 15:02:00,
2013-02-25 07:07:00,34.1,32.6,30.27,SW,218,0.0,0.0,94,0.00,CLR,,0.00,WeatherDisplay:10.37,2013-02-25 15:07:00,
2013-02-25 07:12:00,34.3,32.8,30.27,SW,218,0.0,0.0,94,0.00,CLR,,0.00,WeatherDisplay:10.37,2013-02-25 15:12:00,
2013-02-25 07:17:00,34.5,33.0,30.27,SW,218,0.0,0.0,94,0.00,CLR,,0.00,WeatherDisplay:10.37,2013-02-25 15:17:00,
2013-02-25 07:22:00,34.8,33.2,30.27,SW,219,0.0,0.0,94,0.00,CLR,,0.00,WeatherDisplay:10.37,2013-02-25 15:22:00,
2013-02-25 07:27:00,35.2,33.9,30.27,SW,218,0.0,0.0,95,0.00,CLR,,0.00,WeatherDisplay:10.37,2013-02-25 15:27:00,
2013-02-25 07:32:00,35.7,34.4,30.27,SW,218,0.0,0.0,95,0.00,CLR,,0.00,WeatherDisplay:10.37,2013-02-25 15:32:00,
2013-02-25 07:37:00,36.1,34.8,30.27,SW,218,0.0,0.0,95,0.00,CLR,,0.00,WeatherDisplay:10.37,2013-02-25 15:37:00,
2013-02-25 07:42:00,36.8,35.5,30.27,SW,218,0.0,0.0,95,0.00,CLR,,0.00,WeatherDisplay:10.37,2013-02-25 15:42:00,
2013-02-25 07:47:00,37.4,36.1,30.27,SW,218,0.0,0.0,95,0.00,CLR,,0.00,WeatherDisplay:10.37,2013-02-25 15:47:00,
2013-02-25 07:52:00,38.3,37.3,30.27,SW,218,0.0,0.0,96,0.00,CLR,,0.00,WeatherDisplay:10.37,2013-02-25 15:52:00,
2013-02-25 07:57:00,39.2,37.9,30.26,SW,219,0.0,0.0,95,0.00,CLR,,0.00,WeatherDisplay:10.37,2013-02-25 15:57:00,
2013-02-25 08:02:00,39.9,38.0,30.27,SW,218,0.0,0.0,93,0.00,CLR,,0.00,WeatherDisplay:10.37,2013-02-25 16:02:00,
2013-02-25 08:07:00,41.0,38.6,30.27,SW,219,0.0,0.0,91,0.00,CLR,,0.00,WeatherDisplay:10.37,2013-02-25 16:07:00,
2013-02-25 08:12:00,42.6,39.0,30.27,SW,218,0.0,0.0,87,0.00,CLR,,0.00,WeatherDisplay:10.37,2013-02-25 16:12:00,
2013-02-25 08:17:00,44.0,38.9,30.26,SW,218,1.2,0.0,82,0.00,CLR,,0.00,WeatherDisplay:10.37,2013-02-25 16:17:00,
2013-02-25 08:22:00,45.0,38.6,30.26,SW,218,0.0,0.0,78,0.00,CLR,,0.00,WeatherDisplay:10.37,2013-02-25 16:22:00,
2013-02-25 08:27:00,45.5,38.4,30.26,SW,218,1.2,1.2,76,0.00,CLR,,0.00,WeatherDisplay:10.37,2013-02-25 16:27:00,
2013-02-25 08:33:00,46.1,38.6,30.26,SSW,210,0.0,0.0,75,0.00,CLR,,0.00,WeatherDisplay:10.37,2013-02-25 16:33:00,
2013-02-25 08:38:00,46.8,38.9,30.26,SW,215,1.2,0.0,74,0.00,CLR,,0.00,WeatherDisplay:10.37,2013-02-25 16:38:00,
2013-02-25 08:43:00,47.4,38.5,30.26,SW,215,1.2,1.2,71,0.00,CLR,,0.00,WeatherDisplay:10.37,2013-02-25 16:43:00,
2013-02-25 08:48:00,47.9,37.5,30.26,SW,219,0.0,0.0,67,0.00,CLR,,0.00,WeatherDisplay:10.37,2013-02-25 16:48:00,
2013-02-25 08:53:00,48.3,37.8,30.26,SSW,201,0.0,0.0,67,0.00,CLR,,0.00,WeatherDisplay:10.37,2013-02-25 16:53:00,
2013-02-25 08:58:00,48.8,38.7,30.25,SW,235,0.0,0.0,68,0.00,CLR,,0.00,WeatherDisplay:10.37,2013-02-25 16:58:00,
2013-02-25 09:03:00,49.4,37.7,30.25,SW,235,1.2,1.2,64,0.00,CLR,,0.00,WeatherDisplay:10.37,2013-02-25 17:03:00,
2013-02-25 09:08:00,49.7,37.2,30.26,SW,236,1.2,1.2,62,0.00,CLR,,0.00,WeatherDisplay:10.37,2013-02-25 17:08:00,
2013-02-25 09:13:00,50.2,37.3,30.26,SSW,198,1.2,1.2,61,0.00,CLR,,0.00,WeatherDisplay:10.37,2013-02-25 17:13:00,
2013-02-25 09:18:00,50.7,36.5,30.26,SW,218,2.3,2.3,58,0.00,CLR,,0.00,WeatherDisplay:10.37,2013-02-25 17:18:00,
2013-02-25 09:23:00,51.2,37.4,30.26,SW,225,0.0,0.2,59,0.00,CLR,,0.00,WeatherDisplay:10.37,2013-02-25 17:23:00,
2013-02-25 09:28:00,51.6,37.7,30.25,SW,229,1.2,0.0,59,0.00,CLR,,0.00,WeatherDisplay:10.37,2013-02-25 17:28:00,
2013-02-25 09:33:00,52.0,37.2,30.25,WSW,252,1.0,0.0,57,0.00,CLR,,0.00,WeatherDisplay:10.37,2013-02-25 17:33:00,
2013-02-25 09:38:00,52.4,37.6,30.25,SW,225,0.0,0.0,57,0.00,CLR,,0.00,WeatherDisplay:10.37,2013-02-25 17:38:00,
2013-02-25 09:43:00,52.5,37.7,30.24,WNW,285,1.2,1.2,57,0.00,CLR,,0.00,WeatherDisplay:10.37,2013-02-25 17:43:00,
2013-02-25 09:48:00,52.8,38.0,30.25,West,262,2.3,2.3,57,0.00,CLR,,0.00,WeatherDisplay:10.37,2013-02-25 17:48:00,
2013-02-25 09:53:00,53.0,38.2,30.24,SSW,203,0.0,0.0,57,0.00,CLR,,0.00,WeatherDisplay:10.37,2013-02-25 17:53:00,
2013-02-25 09:58:00,53.4,39.0,30.24,SE,129,0.0,0.0,58,0.00,CLR,,0.00,WeatherDisplay:10.37,2013-02-25 17:58:00,
2013-02-25 10:03:00,53.8,38.9,30.24,SW,218,2.0,2.0,57,0.00,CLR,,0.00,WeatherDisplay:10.37,2013-02-25 18:03:00,
2013-02-25 10:08:00,54.4,38.1,30.23,SE,132,0.0,0.0,54,0.00,CLR,,0.00,WeatherDisplay:10.37,2013-02-25 18:08:00,
2013-02-25 10:13:00,54.7,38.4,30.24,WSW,243,1.2,0.0,54,0.00,CLR,,0.00,WeatherDisplay:10.37,2013-02-25 18:13:00,
2013-02-25 10:18:00,55.0,38.2,30.24,WSW,248,1.2,1.2,53,0.00,CLR,,0.00,WeatherDisplay:10.37,2013-02-25 18:18:00,
2013-02-25 10:23:00,55.3,38.0,30.24,South,170,1.2,1.2,52,0.00,CLR,,0.00,WeatherDisplay:10.37,2013-02-25 18:23:00,
2013-02-25 10:28:00,55.7,38.8,30.24,SSW,201,0.0,0.0,53,0.00,CLR,,0.00,WeatherDisplay:10.37,2013-02-25 18:28:00,
2013-02-25 10:33:00,56.0,38.1,30.24,South,177,1.2,0.0,51,0.00,CLR,,0.00,WeatherDisplay:10.37,2013-02-25 18:33:00,
2013-02-25 10:38:00,56.4,38.0,30.24,West,278,3.5,3.5,50,0.00,CLR,,0.00,WeatherDisplay:10.37,2013-02-25 18:38:00,
2013-02-25 10:43:00,56.7,39.3,30.24,SE,142,1.2,1.2,52,0.00,CLR,,0.00,WeatherDisplay:10.37,2013-02-25 18:43:00,
2013-02-25 10:48:00,57.0,38.5,30.24,West,266,2.3,2.3,50,0.00,CLR,,0.00,WeatherDisplay:10.37,2013-02-25 18:48:00,
2013-02-25 10:53:00,57.0,39.0,30.25,WNW,294,3.5,3.5,51,0.00,CLR,,0.00,WeatherDisplay:10.37,2013-02-25 18:53:00,
2013-02-25 10:58:00,57.3,38.8,30.24,WNW,284,1.2,1.2,50,0.00,CLR,,0.00,WeatherDisplay:10.37,2013-02-25 18:58:00,
2013-02-25 11:03:00,57.7,39.2,30.24,WNW,283,3.5,3.5,50,0.00,CLR,,0.00,WeatherDisplay:10.37,2013-02-25 19:03:00,
2013-02-25 11:08:00,58.0,40.5,30.24,WNW,288,3.5,3.5,52,0.00,CLR,,0.00,WeatherDisplay:10.37,2013-02-25 19:08:00,
2013-02-25 11:13:00,58.2,39.1,30.24,SW,228,2.3,2.3,49,0.00,CLR,,0.00,WeatherDisplay:10.37,2013-02-25 19:13:00,
2013-02-25 11:18:00,58.5,38.9,30.24,ESE,110,1.2,1.2,48,0.00,CLR,,0.00,WeatherDisplay:10.37,2013-02-25 19:18:00,
2013-02-25 11:23:00,59.0,38.2,30.24,West,272,1.2,1.2,46,0.00,CLR,,0.00,WeatherDisplay:10.37,2013-02-25 19:23:00,
2013-02-25 11:28:00,59.1,38.9,30.23,North,356,2.0,2.0,47,0.00,CLR,,0.00,WeatherDisplay:10.37,2013-02-25 19:28:00,
2013-02-25 11:33:00,59.3,39.1,30.23,NE,47,1.2,1.2,47,0.00,CLR,,0.00,WeatherDisplay:10.37,2013-02-25 19:33:00,
2013-02-25 11:38:00,59.6,39.9,30.23,SW,235,2.3,2.3,48,0.00,CLR,,0.00,WeatherDisplay:10.37,2013-02-25 19:38:00,
2013-02-25 11:43:00,59.6,39.9,30.23,North,356,1.2,1.2,48,0.00,CLR,,0.00,WeatherDisplay:10.37,2013-02-25 19:43:00,
2013-02-25 11:48:00,60.1,39.2,30.22,WNW,300,3.5,3.5,46,0.00,CLR,,0.00,WeatherDisplay:10.37,2013-02-25 19:48:00,
2013-02-25 11:53:00,60.5,38.5,30.22,WNW,294,3.5,3.5,44,0.00,CLR,,0.00,WeatherDisplay:10.37,2013-02-25 19:53:00,
2013-02-25 11:58:00,60.5,39.0,30.22,West,267,1.0,0.0,45,0.00,CLR,,0.00,WeatherDisplay:10.37,2013-02-25 19:58:00,
2013-02-25 12:03:00,61.2,39.1,30.21,WSW,246,3.5,3.5,44,0.00,CLR,,0.00,WeatherDisplay:10.37,2013-02-25 20:03:00,
2013-02-25 12:08:00,61.6,39.5,30.21,North,358,3.5,3.5,44,0.00,CLR,,0.00,WeatherDisplay:10.37,2013-02-25 20:08:00,
2013-02-25 12:13:00,61.9,38.5,30.20,North,360,2.3,2.3,42,0.00,CLR,,0.00,WeatherDisplay:10.37,2013-02-25 20:13:00,
2013-02-25 12:18:00,62.3,39.5,30.20,NNW,333,1.2,1.2,43,0.00,CLR,,0.00,WeatherDisplay:10.37,2013-02-25 20:18:00,
2013-02-25 12:23:00,62.3,38.3,30.20,WSW,240,2.3,2.3,41,0.00,CLR,,0.00,WeatherDisplay:10.37,2013-02-25 20:23:00,
2013-02-25 12:28:00,61.9,39.7,30.20,NNE,26,3.5,3.5,44,0.00,CLR,,0.00,WeatherDisplay:10.37,2013-02-25 20:28:00,
2013-02-25 12:33:00,62.2,38.2,30.19,SSW,210,2.3,2.3,41,0.00,CLR,,0.00,WeatherDisplay:10.37,2013-02-25 20:33:00,
2013-02-25 12:38:00,62.4,38.4,30.19,North,353,0.0,0.0,41,0.00,CLR,,0.00,WeatherDisplay:10.37,2013-02-25 20:38:00,
2013-02-25 12:43:00,63.0,38.9,30.18,NNW,333,3.5,3.5,41,0.00,CLR,,0.00,WeatherDisplay:10.37,2013-02-25 20:43:00,
2013-02-25 12:48:00,63.6,40.1,30.18,NNW,335,1.2,1.2,42,0.00,CLR,,0.00,WeatherDisplay:10.37,2013-02-25 20:48:00,
2013-02-25 12:53:00,64.5,39.6,30.18,SSW,197,2.3,2.3,40,0.00,CLR,,0.00,WeatherDisplay:10.37,2013-02-25 20:53:00,
2013-02-25 12:58:00,64.6,38.4,30.18,SSW,207,2.3,2.3,38,0.00,CLR,,0.00,WeatherDisplay:10.37,2013-02-25 20:58:00,
2013-02-25 13:03:00,64.3,39.4,30.18,North,351,3.5,3.5,40,0.00,CLR,,0.00,WeatherDisplay:10.37,2013-02-25 21:03:00,
2013-02-25 13:08:00,64.5,38.3,30.18,NNW,345,3.5,3.5,38,0.00,CLR,,0.00,WeatherDisplay:10.37,2013-02-25 21:08:00,
2013-02-25 13:13:00,64.5,39.6,30.18,SSW,212,2.0,2.0,40,0.00,CLR,,0.00,WeatherDisplay:10.37,2013-02-25 21:13:00,
2013-02-25 13:18:00,64.6,39.1,30.17,NW,319,1.2,1.2,39,0.00,CLR,,0.00,WeatherDisplay:10.37,2013-02-25 21:18:00,
2013-02-25 13:23:00,64.9,38.7,30.18,WSW,255,2.0,2.0,38,0.00,CLR,,0.00,WeatherDisplay:10.37,2013-02-25 21:23:00,
2013-02-25 13:28:00,65.0,38.8,30.17,NE,43,2.0,2.0,38,0.00,CLR,,0.00,WeatherDisplay:10.37,2013-02-25 21:28:00,
2013-02-25 13:33:00,65.2,38.3,30.17,WSW,249,3.5,3.5,37,0.00,CLR,,0.00,WeatherDisplay:10.37,2013-02-25 21:33:00,
2013-02-25 13:38:00,65.2,38.3,30.17,SW,235,1.2,0.0,37,0.00,CLR,,0.00,WeatherDisplay:10.37,2013-02-25 21:38:00,
2013-02-25 13:43:00,65.3,37.6,30.17,SSE,166,3.5,3.5,36,0.00,CLR,,0.00,WeatherDisplay:10.37,2013-02-25 21:43:00,
2013-02-25 13:48:00,65.4,39.1,30.17,SW,229,1.2,1.2,38,0.00,CLR,,0.00,WeatherDisplay:10.37,2013-02-25 21:48:00,
2013-02-25 13:53:00,65.3,37.6,30.17,WSW,240,2.3,2.3,36,0.00,CLR,,0.00,WeatherDisplay:10.37,2013-02-25 21:53:00,
2013-02-25 13:58:00,65.8,39.5,30.17,WNW,297,3.5,3.5,38,0.00,CLR,,0.00,WeatherDisplay:10.37,2013-02-25 21:58:00,
2013-02-25 14:03:00,65.7,37.3,30.17,ENE,61,2.3,2.3,35,0.00,CLR,,0.00,WeatherDisplay:10.37,2013-02-25 22:03:00,
2013-02-25 14:08:00,65.8,35.9,30.17,North,9,5.0,5.0,33,0.00,CLR,,0.00,WeatherDisplay:10.37,2013-02-25 22:08:00,
2013-02-25 14:13:00,65.7,36.5,30.17,SSW,201,2.3,2.3,34,0.00,CLR,,0.00,WeatherDisplay:10.37,2013-02-25 22:13:00,
2013-02-25 14:18:00,65.9,36.7,30.17,West,273,4.6,4.6,34,0.00,CLR,,0.00,WeatherDisplay:10.37,2013-02-25 22:18:00,
2013-02-25 14:23:00,66.0,37.5,30.16,SW,232,1.2,1.2,35,0.00,CLR,,0.00,WeatherDisplay:10.37,2013-02-25 22:23:00,
2013-02-25 14:28:00,66.2,37.0,30.16,West,262,2.3,2.3,34,0.00,CLR,,0.00,WeatherDisplay:10.37,2013-02-25 22:28:00,
2013-02-25 14:33:00,66.4,37.2,30.16,WSW,256,3.5,3.5,34,0.00,CLR,,0.00,WeatherDisplay:10.37,2013-02-25 22:33:00,
2013-02-25 14:38:00,66.7,37.4,30.16,South,188,2.3,2.3,34,0.00,CLR,,0.00,WeatherDisplay:10.37,2013-02-25 22:38:00,
2013-02-25 14:43:00,66.9,36.8,30.16,NE,56,3.5,3.5,33,0.00,CLR,,0.00,WeatherDisplay:10.37,2013-02-25 22:43:00,
2013-02-25 14:48:00,66.4,36.4,30.16,West,267,3.5,3.5,33,0.00,CLR,,0.00,WeatherDisplay:10.37,2013-02-25 22:48:00,
2013-02-25 14:53:00,66.7,36.7,30.16,South,188,3.5,3.5,33,0.00,CLR,,0.00,WeatherDisplay:10.37,2013-02-25 22:53:00,
2013-02-25 14:58:00,66.7,37.4,30.15,NW,313,2.3,2.3,34,0.00,CLR,,0.00,WeatherDisplay:10.37,2013-02-25 22:58:00,
2013-02-25 15:03:00,66.5,38.0,30.15,North,360,1.2,1.2,35,0.00,CLR,,0.00,WeatherDisplay:10.37,2013-02-25 23:03:00,
2013-02-25 15:08:00,66.7,36.7,30.15,SSE,152,1.2,1.2,33,0.00,CLR,,0.00,WeatherDisplay:10.37,2013-02-25 23:08:00,
2013-02-25 15:13:00,67.0,37.7,30.15,NNE,15,2.3,2.3,34,0.00,CLR,,0.00,WeatherDisplay:10.37,2013-02-25 23:13:00,
2013-02-25 15:18:00,67.3,38.0,30.14,South,177,1.2,1.2,34,0.00,CLR,,0.00,WeatherDisplay:10.37,2013-02-25 23:18:00,
2013-02-25 15:23:00,67.2,37.1,30.14,WNW,296,2.3,2.3,33,0.00,CLR,,0.00,WeatherDisplay:10.37,2013-02-25 23:23:00,
2013-02-25 15:28:00,66.9,36.8,30.13,SSW,194,1.2,1.2,33,0.00,CLR,,0.00,WeatherDisplay:10.37,2013-02-25 23:28:00,
2013-02-25 15:33:00,67.2,37.1,30.13,WNW,294,1.2,1.2,33,0.00,CLR,,0.00,WeatherDisplay:10.37,2013-02-25 23:33:00,
2013-02-25 15:38:00,67.4,36.5,30.13,West,271,1.2,1.2,32,0.00,CLR,,0.00,WeatherDisplay:10.37,2013-02-25 23:38:00,
2013-02-25 15:43:00,67.2,36.3,30.13,SSW,207,3.5,3.5,32,0.00,CLR,,0.00,WeatherDisplay:10.37,2013-02-25 23:43:00,
2013-02-25 15:48:00,67.0,36.9,30.12,North,353,3.5,3.5,33,0.00,CLR,,0.00,WeatherDisplay:10.37,2013-02-25 23:48:00,
2013-02-25 15:53:00,67.1,36.2,30.13,NNW,345,2.3,2.3,32,0.00,CLR,,0.00,WeatherDisplay:10.37,2013-02-25 23:53:00,
2013-02-25 15:58:00,66.9,36.1,30.12,NW,305,3.5,3.5,32,0.00,CLR,,0.00,WeatherDisplay:10.37,2013-02-25 23:58:00,
2013-02-25 16:03:00,67.1,37.0,30.12,SW,218,1.2,1.2,33,0.00,CLR,,0.00,WeatherDisplay:10.37,2013-02-26 00:03:00,
2013-02-25 16:08:00,67.1,37.0,30.12,WNW,283,1.2,1.2,33,0.00,CLR,,0.00,WeatherDisplay:10.37,2013-02-26 00:08:00,
2013-02-25 16:13:00,67.6,35.9,30.12,SSW,198,2.3,2.3,31,0.00,CLR,,0.00,WeatherDisplay:10.37,2013-02-26 00:13:00,
2013-02-25 16:18:00,67.4,36.5,30.11,SSE,155,2.3,2.3,32,0.00,CLR,,0.00,WeatherDisplay:10.37,2013-02-26 00:18:00,
2013-02-25 16:23:00,67.0,36.1,30.11,NNW,335,2.3,2.3,32,0.00,CLR,,0.00,WeatherDisplay:10.37,2013-02-26 00:23:00,
2013-02-25 16:28:00,67.0,36.1,30.11,NNW,339,2.3,2.3,32,0.00,CLR,,0.00,WeatherDisplay:10.37,2013-02-26 00:28:00,
2013-02-25 16:33:00,66.2,36.2,30.12,WSW,246,2.3,2.3,33,0.00,CLR,,0.00,WeatherDisplay:10.37,2013-02-26 00:33:00,
2013-02-25 16:38:00,65.7,36.5,30.12,NW,316,2.3,2.3,34,0.00,CLR,,0.00,WeatherDisplay:10.37,2013-02-26 00:38:00,
2013-02-25 16:43:00,65.3,36.2,30.11,NW,309,1.2,1.2,34,0.00,CLR,,0.00,WeatherDisplay:10.37,2013-02-26 00:43:00,
2013-02-25 16:48:00,64.6,36.3,30.11,NNW,339,2.3,2.3,35,0.00,CLR,,0.00,WeatherDisplay:10.37,2013-02-26 00:48:00,
2013-02-25 16:53:00,63.8,35.6,30.12,NNE,18,2.3,2.3,35,0.00,CLR,,0.00,WeatherDisplay:10.37,2013-02-26 00:53:00,
2013-02-25 16:58:00,63.2,35.8,30.12,NNE,12,1.2,1.2,36,0.00,CLR,,0.00,WeatherDisplay:10.37,2013-02-26 00:58:00,
2013-02-25 17:03:00,62.8,36.1,30.12,NNW,335,1.2,1.2,37,0.00,CLR,,0.00,WeatherDisplay:10.37,2013-02-26 01:03:00,
2013-02-25 17:08:00,62.4,36.4,30.12,West,274,1.2,1.2,38,0.00,CLR,,0.00,WeatherDisplay:10.37,2013-02-26 01:08:00,
2013-02-25 17:13:00,62.0,36.1,30.13,NNW,342,2.3,2.3,38,0.00,CLR,,0.00,WeatherDisplay:10.37,2013-02-26 01:13:00,
2013-02-25 17:18:00,61.7,36.5,30.13,North,354,0.0,0.1,39,0.00,CLR,,0.00,WeatherDisplay:10.37,2013-02-26 01:18:00,
2013-02-25 17:23:00,61.3,36.8,30.12,NNW,339,1.2,1.2,40,0.00,CLR,,0.00,WeatherDisplay:10.37,2013-02-26 01:23:00,
2013-02-25 17:28:00,60.9,36.4,30.13,NNW,339,1.2,1.2,40,0.00,CLR,,0.00,WeatherDisplay:10.37,2013-02-26 01:28:00,
2013-02-25 17:33:00,60.5,36.7,30.13,NNW,343,1.2,0.0,41,0.00,CLR,,0.00,WeatherDisplay:10.37,2013-02-26 01:33:00,
2013-02-25 17:38:00,60.2,37.6,30.13,NNW,347,0.0,0.0,43,0.00,CLR,,0.00,WeatherDisplay:10.37,2013-02-26 01:38:00,
2013-02-25 17:43:00,59.7,37.2,30.13,West,276,0.0,0.0,43,0.00,CLR,,0.00,WeatherDisplay:10.37,2013-02-26 01:43:00,
2013-02-25 17:48:00,59.2,37.3,30.13,West,275,0.0,0.0,44,0.00,CLR,,0.00,WeatherDisplay:10.37,2013-02-26 01:48:00,
2013-02-25 17:53:00,58.7,37.4,30.13,West,276,0.0,0.0,45,0.00,CLR,,0.00,WeatherDisplay:10.37,2013-02-26 01:53:00,
2013-02-25 17:58:00,58.3,37.6,30.12,West,276,0.0,0.0,46,0.00,CLR,,0.00,WeatherDisplay:10.37,2013-02-26 01:58:00,
2013-02-25 18:03:00,57.7,37.6,30.12,West,276,0.0,0.0,47,0.00,CLR,,0.00,WeatherDisplay:10.37,2013-02-26 02:03:00,
2013-02-25 18:08:00,57.2,37.7,30.12,West,275,0.0,0.0,48,0.00,CLR,,0.00,WeatherDisplay:10.37,2013-02-26 02:08:00,
2013-02-25 18:13:00,56.6,38.2,30.12,West,276,0.0,0.0,50,0.00,CLR,,0.00,WeatherDisplay:10.37,2013-02-26 02:13:00,
2013-02-25 18:18:00,56.1,37.7,30.12,West,276,0.0,0.0,50,0.00,CLR,,0.00,WeatherDisplay:10.37,2013-02-26 02:18:00,
2013-02-25 18:23:00,55.6,37.7,30.12,West,276,0.0,0.0,51,0.00,CLR,,0.00,WeatherDisplay:10.37,2013-02-26 02:23:00,
2013-02-25 18:28:00,55.3,38.0,30.12,West,275,0.0,0.0,52,0.00,CLR,,0.00,WeatherDisplay:10.37,2013-02-26 02:28:00,
2013-02-25 18:33:00,54.8,38.5,30.12,West,276,0.0,0.0,54,0.00,CLR,,0.00,WeatherDisplay:10.37,2013-02-26 02:33:00,
2013-02-25 18:38:00,54.1,37.8,30.12,West,276,0.0,0.0,54,0.00,CLR,,0.00,WeatherDisplay:10.37,2013-02-26 02:38:00,
2013-02-25 18:43:00,53.6,37.8,30.12,West,275,0.0,0.0,55,0.00,CLR,,0.00,WeatherDisplay:10.37,2013-02-26 02:43:00,
2013-02-25 18:48:00,53.0,37.7,30.12,West,275,0.0,0.0,56,0.00,CLR,,0.00,WeatherDisplay:10.37,2013-02-26 02:48:00,
2013-02-25 18:53:00,52.6,37.8,30.12,West,275,0.0,0.0,57,0.00,CLR,,0.00,WeatherDisplay:10.37,2013-02-26 02:53:00,
2013-02-25 18:58:00,52.1,37.8,30.12,West,275,0.0,0.0,58,0.00,CLR,,0.00,WeatherDisplay:10.37,2013-02-26 02:58:00,
2013-02-25 19:03:00,51.6,38.2,30.12,West,276,0.0,0.0,60,0.00,CLR,,0.00,WeatherDisplay:10.37,2013-02-26 03:03:00,
2013-02-25 19:08:00,51.1,38.5,30.12,West,275,0.0,0.0,62,0.00,CLR,,0.00,WeatherDisplay:10.37,2013-02-26 03:08:00,
2013-02-25 19:13:00,50.7,38.1,30.13,West,276,0.0,0.0,62,0.00,CLR,,0.00,WeatherDisplay:10.37,2013-02-26 03:13:00,
2013-02-25 19:18:00,50.4,38.7,30.13,West,276,0.0,0.0,64,0.00,CLR,,0.00,WeatherDisplay:10.37,2013-02-26 03:18:00,
2013-02-25 19:23:00,50.1,38.4,30.13,West,276,0.0,0.0,64,0.00,CLR,,0.00,WeatherDisplay:10.37,2013-02-26 03:23:00,
2013-02-25 19:28:00,49.6,37.9,30.13,West,276,0.0,0.0,64,0.00,CLR,,0.00,WeatherDisplay:10.37,2013-02-26 03:28:00,
2013-02-25 19:33:00,49.2,38.3,30.13,West,276,0.0,0.0,66,0.00,CLR,,0.00,WeatherDisplay:10.37,2013-02-26 03:33:00,
2013-02-25 19:38:00,48.9,38.0,30.13,West,275,0.0,0.0,66,0.00,CLR,,0.00,WeatherDisplay:10.37,2013-02-26 03:38:00,
2013-02-25 19:43:00,48.6,38.1,30.13,West,275,0.0,0.0,67,0.00,CLR,,0.00,WeatherDisplay:10.37,2013-02-26 03:43:00,
2013-02-25 19:48:00,48.4,37.9,30.13,West,275,0.0,0.0,67,0.00,CLR,,0.00,WeatherDisplay:10.37,2013-02-26 03:48:00,
2013-02-25 19:53:00,48.2,37.8,30.13,West,275,0.0,0.0,67,0.00,CLR,,0.00,WeatherDisplay:10.37,2013-02-26 03:53:00,
2013-02-25 19:58:00,47.9,38.6,30.13,West,276,0.0,0.0,70,0.00,CLR,,0.00,WeatherDisplay:10.37,2013-02-26 03:58:00,
2013-02-25 20:03:00,47.6,38.3,30.13,West,275,0.0,0.0,70,0.00,CLR,,0.00,WeatherDisplay:10.37,2013-02-26 04:03:00,
2013-02-25 20:08:00,47.3,38.4,30.13,West,275,0.0,0.0,71,0.00,CLR,,0.00,WeatherDisplay:10.37,2013-02-26 04:08:00,
2013-02-25 20:13:00,46.9,38.0,30.13,West,275,0.0,0.0,71,0.00,CLR,,0.00,WeatherDisplay:10.37,2013-02-26 04:13:00,
2013-02-25 20:18:00,46.6,38.1,30.14,West,276,0.0,0.0,72,0.00,CLR,,0.00,WeatherDisplay:10.37,2013-02-26 04:18:00,
2013-02-25 20:23:00,46.4,38.2,30.14,West,275,0.0,0.0,73,0.00,CLR,,0.00,WeatherDisplay:10.37,2013-02-26 04:23:00,
2013-02-25 20:28:00,46.3,38.1,30.14,West,275,0.0,0.0,73,0.00,CLR,,0.00,WeatherDisplay:10.37,2013-02-26 04:28:00,
2013-02-25 20:33:00,46.0,38.2,30.14,West,276,0.0,0.0,74,0.00,CLR,,0.00,WeatherDisplay:10.37,2013-02-26 04:33:00,
2013-02-25 20:38:00,45.8,37.6,30.14,West,275,0.0,0.0,73,0.00,CLR,,0.00,WeatherDisplay:10.37,2013-02-26 04:38:00,
2013-02-25 20:43:00,45.5,37.7,30.14,West,276,0.0,0.0,74,0.00,CLR,,0.00,WeatherDisplay:10.37,2013-02-26 04:43:00,
2013-02-25 20:48:00,45.1,37.3,30.14,West,276,0.0,0.0,74,0.00,CLR,,0.00,WeatherDisplay:10.37,2013-02-26 04:48:00,
2013-02-25 20:53:00,44.9,37.5,30.14,West,276,0.0,0.0,75,0.00,CLR,,0.00,WeatherDisplay:10.37,2013-02-26 04:53:00,
2013-02-25 20:58:00,44.6,37.5,30.14,West,275,0.0,0.0,76,0.00,CLR,,0.00,WeatherDisplay:10.37,2013-02-26 04:58:00,
2013-02-25 21:00:00,44.6,37.8,30.14,West,276,0.0,0.0,77,0.00,CLR,,0.00,WeatherDisplay:10.37,2013-02-26 05:00:00,
2013-02-25 21:05:00,44.6,37.8,30.14,West,276,0.0,0.0,77,0.00,CLR,,0.00,WeatherDisplay:10.37,2013-02-26 05:05:00,
2013-02-25 21:10:00,44.5,38.1,30.14,West,275,0.0,0.0,78,0.00,CLR,,0.00,WeatherDisplay:10.37,2013-02-26 05:10:00,
2013-02-25 21:15:00,44.3,37.5,30.14,West,275,0.0,0.0,77,0.00,CLR,,0.00,WeatherDisplay:10.37,2013-02-26 05:15:00,
2013-02-25 21:20:00,44.0,37.3,30.14,West,276,0.0,0.0,77,0.00,CLR,,0.00,WeatherDisplay:10.37,2013-02-26 05:20:00,
2013-02-25 21:25:00,43.7,37.3,30.14,West,275,0.0,0.0,78,0.00,CLR,,0.00,WeatherDisplay:10.37,2013-02-26 05:25:00,
2013-02-25 21:30:00,43.5,37.1,30.14,West,275,0.0,0.0,78,0.00,CLR,,0.00,WeatherDisplay:10.37,2013-02-26 05:30:00,
2013-02-25 21:35:00,43.3,37.5,30.14,West,275,0.0,0.0,80,0.00,CLR,,0.00,WeatherDisplay:10.37,2013-02-26 05:35:00,
2013-02-25 21:40:00,43.1,37.3,30.15,West,276,0.0,0.0,80,0.00,CLR,,0.00,WeatherDisplay:10.37,2013-02-26 05:40:00,
2013-02-25 21:45:00,42.8,37.1,30.15,West,275,0.0,0.0,80,0.00,CLR,,0.00,WeatherDisplay:10.37,2013-02-26 05:45:00,
2013-02-25 21:50:00,42.7,37.6,30.15,West,276,0.0,0.0,82,0.00,CLR,,0.00,WeatherDisplay:10.37,2013-02-26 05:50:00,
2013-02-25 21:55:00,42.7,37.6,30.15,West,276,0.0,0.0,82,0.00,CLR,,0.00,WeatherDisplay:10.37,2013-02-26 05:55:00,
2013-02-25 22:00:00,43.2,38.4,30.15,South,191,1.2,0.0,83,0.00,CLR,,0.00,WeatherDisplay:10.37,2013-02-26 06:00:00,
2013-02-25 22:05:00,44.0,38.5,30.16,South,191,0.0,0.0,81,0.00,CLR,,0.00,WeatherDisplay:10.37,2013-02-26 06:05:00,
2013-02-25 22:10:00,44.3,38.5,30.16,South,191,0.0,0.0,80,0.00,CLR,,0.00,WeatherDisplay:10.37,2013-02-26 06:10:00,
2013-02-25 22:15:00,44.4,38.3,30.16,South,191,0.0,0.0,79,0.00,CLR,,0.00,WeatherDisplay:10.37,2013-02-26 06:15:00,
2013-02-25 22:20:00,44.6,38.5,30.16,South,191,0.0,0.0,79,0.00,CLR,,0.00,WeatherDisplay:10.37,2013-02-26 06:20:00,
2013-02-25 22:25:00,44.6,38.2,30.16,South,191,0.0,0.0,78,0.00,CLR,,0.00,WeatherDisplay:10.37,2013-02-26 06:25:00,
2013-02-25 22:30:00,44.6,38.2,30.16,South,191,0.0,0.0,78,0.00,CLR,,0.00,WeatherDisplay:10.37,2013-02-26 06:30:00,
2013-02-25 22:35:00,44.7,38.3,30.16,South,175,0.0,0.0,78,0.00,CLR,,0.00,WeatherDisplay:10.37,2013-02-26 06:35:00,
2013-02-25 22:40:00,45.2,38.4,30.16,South,173,0.0,0.0,77,0.00,CLR,,0.00,WeatherDisplay:10.37,2013-02-26 06:40:00,
2013-02-25 22:45:00,45.7,38.6,30.16,South,174,0.0,0.0,76,0.00,CLR,,0.00,WeatherDisplay:10.37,2013-02-26 06:45:00,
2013-02-25 22:50:00,45.9,38.8,30.16,South,173,0.0,0.0,76,0.00,CLR,,0.00,WeatherDisplay:10.37,2013-02-26 06:50:00,
2013-02-25 22:55:00,45.9,38.4,30.16,South,173,0.0,0.0,75,0.00,CLR,,0.00,WeatherDisplay:10.37,2013-02-26 06:55:00,
2013-02-25 23:00:00,45.8,38.3,30.16,South,173,0.0,0.0,75,0.00,CLR,,0.00,WeatherDisplay:10.37,2013-02-26 07:00:00,
2013-02-25 23:05:00,45.5,38.0,30.16,South,173,0.0,0.0,75,0.00,CLR,,0.00,WeatherDisplay:10.37,2013-02-26 07:05:00,
2013-02-25 23:10:00,45.4,38.3,30.16,South,173,0.0,0.0,76,0.00,CLR,,0.00,WeatherDisplay:10.37,2013-02-26 07:10:00,
2013-02-25 23:15:00,45.2,38.1,30.16,South,173,0.0,0.0,76,0.00,CLR,,0.00,WeatherDisplay:10.37,2013-02-26 07:15:00,
2013-02-25 23:20:00,45.0,38.2,30.16,South,174,0.0,0.0,77,0.00,CLR,,0.00,WeatherDisplay:10.37,2013-02-26 07:20:00,
2013-02-25 23:25:00,44.8,38.0,30.16,South,173,0.0,0.0,77,0.00,CLR,,0.00,WeatherDisplay:10.37,2013-02-26 07:25:00,
2013-02-25 23:30:00,44.5,38.1,30.16,South,173,0.0,0.0,78,0.00,CLR,,0.00,WeatherDisplay:10.37,2013-02-26 07:30:00,
2013-02-25 23:35:00,44.3,38.2,30.16,South,173,0.0,0.0,79,0.00,CLR,,0.00,WeatherDisplay:10.37,2013-02-26 07:35:00,
2013-02-25 23:40:00,44.0,37.6,30.16,South,173,0.0,0.0,78,0.00,CLR,,0.00,WeatherDisplay:10.37,2013-02-26 07:40:00,
2013-02-25 23:45:00,43.6,37.5,30.16,South,173,0.0,0.0,79,0.00,CLR,,0.00,WeatherDisplay:10.37,2013-02-26 07:45:00,
2013-02-25 23:50:00,43.1,37.0,30.16,South,173,0.0,0.0,79,0.00,CLR,,0.00,WeatherDisplay:10.37,2013-02-26 07:50:00,
2013-02-25 23:55:00,42.8,37.1,30.16,South,173,0.0,0.0,80,0.00,CLR,,0.00,WeatherDisplay:10.37,2013-02-26 07:55:00,